Time;durP1;ratioP1;P1;durP2;ratioP2;P2;SDS_P1;SDS_P2;PMS_P1;PMS_P2;Temp;Humidity;BMP_temperature;BMP_pressure;BME280_temperature;BME280_humidity;BME280_pressure;Samples;Min_cycle;Max_cycle;Signal;HPM_P1;HPM_P2
2023/10/26 00:00:05;;;;;;;0.20;0.20;;;11.90;99.90;;;;;;5052308;28;20208;-60
2023/10/26 00:02:33;;;;;;;1.13;0.20;;;11.90;99.90;;;;;;5041973;28;20555;-59
2023/10/26 00:05:02;;;;;;;0.50;0.30;;;11.90;99.90;;;;;;5051522;28;20198;-60
2023/10/26 00:07:29;;;;;;;0.20;0.20;;;11.90;99.90;;;;;;5051752;28;20246;-59
2023/10/26 00:09:56;;;;;;;0.10;0.10;;;11.90;99.90;;;;;;5050964;28;20266;-60
2023/10/26 00:12:23;;;;;;;0.20;0.10;;;11.90;99.90;;;;;;5042855;28;20228;-60
2023/10/26 00:14:50;;;;;;;0.10;0.10;;;11.90;99.90;;;;;;5051526;28;20200;-60
2023/10/26 00:17:17;;;;;;;0.10;0.10;;;11.90;99.90;;;;;;5051845;28;20682;-60
2023/10/26 00:19:44;;;;;;;0.27;0.20;;;11.90;99.90;;;;;;5051651;28;20221;-59
2023/10/26 00:22:12;;;;;;;0.20;0.20;;;12.00;99.90;;;;;;5049925;28;20216;-59
2023/10/26 00:24:40;;;;;;;0.27;0.10;;;11.90;99.90;;;;;;5050772;28;20212;-59
2023/10/26 00:27:07;;;;;;;0.20;0.20;;;11.90;99.90;;;;;;5051693;28;20247;-59
2023/10/26 00:29:34;;;;;;;0.20;0.20;;;11.80;99.90;;;;;;5051519;28;20225;-60
2023/10/26 00:32:01;;;;;;;0.20;0.20;;;11.80;99.90;;;;;;5043191;28;20205;-59
2023/10/26 00:34:28;;;;;;;0.23;0.20;;;11.80;99.90;;;;;;5050576;28;20200;-59
2023/10/26 00:36:55;;;;;;;0.10;0.10;;;11.80;99.90;;;;;;5050529;28;20287;-59
2023/10/26 00:39:23;;;;;;;0.20;0.20;;;11.80;99.90;;;;;;5050012;28;20279;-59
2023/10/26 00:41:51;;;;;;;0.37;0.23;;;11.70;99.90;;;;;;5050446;28;20738;-59
2023/10/26 00:44:18;;;;;;;0.10;0.10;;;11.70;99.90;;;;;;5050723;28;20287;-60
2023/10/26 00:46:45;;;;;;;0.20;0.20;;;11.70;99.90;;;;;;5051078;28;20247;-60
2023/10/26 00:49:15;;;;;;;0.23;0.23;;;11.70;99.90;;;;;;5051653;28;20282;-59
2023/10/26 00:51:43;;;;;;;0.10;0.10;;;11.70;99.90;;;;;;5051881;28;20205;-59
2023/10/26 00:54:11;;;;;;;0.23;0.23;;;11.60;99.90;;;;;;5049503;28;20227;-59
2023/10/26 00:56:39;;;;;;;0.10;0.10;;;11.60;99.90;;;;;;5050668;28;20794;-59
2023/10/26 00:59:06;;;;;;;0.67;0.20;;;11.70;99.90;;;;;;5051419;28;20327;-59
2023/10/26 01:01:34;;;;;;;0.60;0.20;;;11.60;99.90;;;;;;5046365;28;20251;-59
2023/10/26 01:04:03;;;;;;;0.10;0.10;;;11.60;99.90;;;;;;5047099;28;20287;-59
2023/10/26 01:06:30;;;;;;;0.63;0.43;;;11.60;99.90;;;;;;5050884;28;20212;-59
2023/10/26 01:08:57;;;;;;;0.63;0.30;;;11.60;99.90;;;;;;5043123;28;20229;-59
2023/10/26 01:11:24;;;;;;;0.40;0.30;;;11.70;99.90;;;;;;5047765;28;20212;-59
2023/10/26 01:13:52;;;;;;;0.10;0.07;;;11.60;99.90;;;;;;5050991;28;20611;-59
2023/10/26 01:16:20;;;;;;;0.83;0.10;;;11.70;99.90;;;;;;5051245;28;20682;-59
2023/10/26 01:18:47;;;;;;;0.63;0.10;;;11.70;99.90;;;;;;5042361;28;20267;-59
2023/10/26 01:21:14;;;;;;;2.43;0.40;;;11.70;99.90;;;;;;5051142;28;20741;-59
2023/10/26 01:23:42;;;;;;;0.20;0.20;;;11.70;99.90;;;;;;5050221;28;20262;-60
2023/10/26 01:26:09;;;;;;;0.20;0.13;;;11.70;99.90;;;;;;5042891;28;20246;-59
2023/10/26 01:28:36;;;;;;;0.27;0.20;;;11.70;99.90;;;;;;5045386;28;20271;-59
2023/10/26 01:31:03;;;;;;;0.10;0.10;;;11.80;99.90;;;;;;5047182;28;20201;-59
2023/10/26 01:33:30;;;;;;;0.10;0.10;;;11.80;99.90;;;;;;5050846;28;20255;-59
2023/10/26 01:35:57;;;;;;;4.33;0.20;;;11.80;99.90;;;;;;5042563;28;20195;-59
2023/10/26 01:38:24;;;;;;;0.80;0.10;;;11.80;99.90;;;;;;5048783;28;20233;-60
2023/10/26 01:40:53;;;;;;;0.10;0.10;;;11.70;99.90;;;;;;5049132;28;20616;-59
2023/10/26 01:43:20;;;;;;;0.40;0.40;;;11.70;99.90;;;;;;5044654;28;20201;-61
2023/10/26 01:45:47;;;;;;;0.20;0.20;;;11.70;99.90;;;;;;5051066;28;20560;-59
2023/10/26 01:48:14;;;;;;;0.20;0.20;;;11.70;99.90;;;;;;5051041;28;20221;-59
2023/10/26 01:50:41;;;;;;;0.77;0.10;;;11.70;99.90;;;;;;5051034;28;20630;-61
2023/10/26 01:53:08;;;;;;;1.43;0.10;;;11.70;99.90;;;;;;5049573;28;20641;-59
2023/10/26 01:55:35;;;;;;;0.10;0.10;;;11.70;99.90;;;;;;5050089;28;20244;-60
2023/10/26 01:58:03;;;;;;;1.40;0.30;;;11.70;99.90;;;;;;5050515;28;20267;-59
2023/10/26 02:00:30;;;;;;;0.63;0.10;;;11.70;99.90;;;;;;5051154;28;20201;-59
2023/10/26 02:02:57;;;;;;;0.40;0.27;;;11.70;99.90;;;;;;5050982;28;20275;-59
2023/10/26 02:05:24;;;;;;;0.10;0.10;;;11.80;99.90;;;;;;5050991;28;20600;-60
2023/10/26 02:07:51;;;;;;;0.37;0.37;;;11.80;99.90;;;;;;5050107;28;20216;-59
2023/10/26 02:10:20;;;;;;;2.73;0.20;;;11.80;99.90;;;;;;5074841;22;20236;-60
2023/10/26 02:12:46;;;;;;;0.30;0.30;;;11.80;99.90;;;;;;5050038;28;20200;-60
2023/10/26 02:15:15;;;;;;;0.20;0.20;;;11.80;99.90;;;;;;5050074;28;20235;-60
2023/10/26 02:17:42;;;;;;;0.30;0.30;;;11.70;99.90;;;;;;5051088;28;20267;-61
2023/10/26 02:20:09;;;;;;;0.20;0.20;;;11.70;99.90;;;;;;5054553;28;20228;-60
2023/10/26 02:22:36;;;;;;;0.83;0.70;;;11.70;99.90;;;;;;5054740;28;20220;-60
2023/10/26 02:25:04;;;;;;;0.30;0.30;;;11.60;99.90;;;;;;5042424;28;20201;-61
2023/10/26 02:27:31;;;;;;;0.93;0.40;;;11.50;99.90;;;;;;5048406;28;20242;-60
2023/10/26 02:29:58;;;;;;;0.60;0.30;;;11.50;99.90;;;;;;5054574;28;20264;-60
2023/10/26 02:32:27;;;;;;;2.00;0.40;;;11.50;99.90;;;;;;5054564;28;20201;-61
2023/10/26 02:34:54;;;;;;;1.23;0.47;;;11.50;99.90;;;;;;5054107;28;20206;-60
2023/10/26 02:37:21;;;;;;;0.50;0.50;;;11.50;99.90;;;;;;5053507;28;20644;-60
2023/10/26 02:39:48;;;;;;;0.37;0.37;;;11.50;99.90;;;;;;5051885;28;20224;-61
2023/10/26 02:42:15;;;;;;;2.20;0.40;;;11.50;99.90;;;;;;5049860;28;20577;-60
2023/10/26 02:44:42;;;;;;;0.40;0.40;;;11.50;99.90;;;;;;5052510;28;20273;-60
2023/10/26 02:47:08;;;;;;;0.30;0.30;;;11.60;99.90;;;;;;5053172;28;20243;-60
2023/10/26 02:49:37;;;;;;;0.40;0.40;;;11.50;99.90;;;;;;5054108;28;20272;-60
2023/10/26 02:52:04;;;;;;;0.70;0.70;;;11.50;99.90;;;;;;5054148;28;20202;-60
2023/10/26 02:54:31;;;;;;;0.50;0.40;;;11.50;99.90;;;;;;5053849;28;20262;-61
2023/10/26 02:56:58;;;;;;;0.40;0.40;;;11.50;99.90;;;;;;5046517;28;20256;-60
2023/10/26 02:59:25;;;;;;;0.93;0.30;;;11.50;99.90;;;;;;5048564;28;20789;-60
2023/10/26 03:01:52;;;;;;;0.40;0.40;;;11.50;99.90;;;;;;5053951;28;20253;-60
2023/10/26 03:04:19;;;;;;;1.90;0.40;;;11.50;99.90;;;;;;5053396;28;20201;-60
2023/10/26 03:06:47;;;;;;;0.50;0.40;;;11.60;99.90;;;;;;5053888;28;20672;-60
2023/10/26 03:09:14;;;;;;;0.70;0.70;;;11.60;99.90;;;;;;5053532;28;20248;-60
2023/10/26 03:11:41;;;;;;;0.40;0.40;;;11.60;99.90;;;;;;5053980;28;20255;-60
2023/10/26 03:14:08;;;;;;;2.30;0.60;;;11.60;99.90;;;;;;5042320;28;20251;-61
2023/10/26 03:16:35;;;;;;;1.20;0.50;;;11.60;99.90;;;;;;5045711;28;20201;-60
2023/10/26 03:19:01;;;;;;;2.47;0.63;;;11.60;99.90;;;;;;5053374;28;20216;-60
2023/10/26 03:21:29;;;;;;;2.60;1.30;;;11.50;99.90;;;;;;5053540;28;20213;-60
2023/10/26 03:23:57;;;;;;;1.27;1.27;;;11.50;99.90;;;;;;5053569;28;20197;-60
2023/10/26 03:26:24;;;;;;;1.30;1.27;;;11.50;99.90;;;;;;5053663;28;20258;-60
2023/10/26 03:28:52;;;;;;;0.80;0.80;;;11.50;99.90;;;;;;5051553;28;20220;-60
2023/10/26 03:31:19;;;;;;;0.70;0.70;;;11.50;99.90;;;;;;5052182;28;20205;-60
2023/10/26 03:33:46;;;;;;;0.70;0.70;;;11.50;99.90;;;;;;5052940;28;20208;-60
2023/10/26 03:36:14;;;;;;;0.70;0.70;;;11.40;99.90;;;;;;5053101;28;20612;-60
2023/10/26 03:38:41;;;;;;;1.47;0.90;;;11.50;99.90;;;;;;5053313;28;20264;-60
2023/10/26 03:41:10;;;;;;;1.30;0.87;;;11.50;99.90;;;;;;5051441;28;20209;-60
2023/10/26 03:43:37;;;;;;;0.77;0.77;;;11.40;99.90;;;;;;5051666;28;20258;-60
2023/10/26 03:46:07;;;;;;;1.50;0.70;;;11.40;99.90;;;;;;5050276;28;20224;-60
2023/10/26 03:48:35;;;;;;;0.80;0.70;;;11.40;99.90;;;;;;5052758;28;20303;-61
2023/10/26 03:51:04;;;;;;;0.60;0.60;;;11.40;99.90;;;;;;5052993;28;20254;-61
2023/10/26 03:53:31;;;;;;;2.40;0.40;;;11.40;99.90;;;;;;5052699;28;20587;-60
2023/10/26 03:55:58;;;;;;;0.63;0.63;;;11.40;99.90;;;;;;5053059;28;20200;-60
2023/10/26 03:58:27;;;;;;;1.50;0.90;;;11.40;99.90;;;;;;5053226;28;20222;-61
2023/10/26 04:00:56;;;;;;;2.23;0.83;;;11.30;99.90;;;;;;5051744;28;20205;-60
2023/10/26 04:03:23;;;;;;;0.60;0.60;;;11.30;99.90;;;;;;5049961;28;20204;-60
2023/10/26 04:05:50;;;;;;;0.40;0.40;;;11.30;99.90;;;;;;5052568;28;20232;-61
2023/10/26 04:08:17;;;;;;;0.40;0.40;;;11.30;99.90;;;;;;5052783;28;20204;-60
2023/10/26 04:10:44;;;;;;;0.60;0.60;;;11.30;99.90;;;;;;5051280;28;20241;-60
2023/10/26 04:13:11;;;;;;;0.50;0.50;;;11.30;99.90;;;;;;5052069;28;20858;-60
2023/10/26 04:15:39;;;;;;;0.57;0.57;;;11.40;99.90;;;;;;5052507;28;20628;-61
2023/10/26 04:18:06;;;;;;;0.83;0.80;;;11.40;99.90;;;;;;5050772;28;20277;-61
2023/10/26 04:20:33;;;;;;;0.80;0.80;;;11.40;99.90;;;;;;5049247;28;20302;-60
2023/10/26 04:23:00;;;;;;;0.90;0.70;;;11.40;99.90;;;;;;5050253;28;20349;-61
2023/10/26 04:25:28;;;;;;;0.60;0.60;;;11.30;99.90;;;;;;5053197;28;20203;-61
2023/10/26 04:27:56;;;;;;;0.50;0.50;;;11.40;99.90;;;;;;5052241;28;20197;-61
2023/10/26 04:30:23;;;;;;;0.70;0.70;;;11.40;99.90;;;;;;5052831;28;20283;-60
2023/10/26 04:32:52;;;;;;;0.67;0.50;;;11.40;99.90;;;;;;5052084;28;20199;-60
2023/10/26 04:35:20;;;;;;;0.60;0.60;;;11.40;99.90;;;;;;5050957;28;20280;-61
2023/10/26 04:37:47;;;;;;;0.83;0.60;;;11.40;99.90;;;;;;5049964;28;20225;-60
2023/10/26 04:40:14;;;;;;;0.70;0.70;;;11.40;99.90;;;;;;5051769;28;20224;-61
2023/10/26 04:42:41;;;;;;;0.50;0.50;;;11.40;99.90;;;;;;5050688;28;20239;-61
2023/10/26 04:45:08;;;;;;;0.60;0.60;;;11.40;99.90;;;;;;5051701;28;20274;-61
2023/10/26 04:47:35;;;;;;;0.60;0.60;;;11.40;99.90;;;;;;5050790;28;20208;-60
2023/10/26 04:50:04;;;;;;;0.60;0.60;;;11.40;99.90;;;;;;5051739;28;20270;-61
2023/10/26 04:52:32;;;;;;;1.03;0.70;;;11.40;99.90;;;;;;5050797;28;20286;-60
2023/10/26 04:54:58;;;;;;;1.07;0.90;;;11.40;99.90;;;;;;5051354;28;20695;-60
2023/10/26 04:57:25;;;;;;;1.23;0.57;;;11.40;99.90;;;;;;5051487;28;20254;-61
2023/10/26 04:59:52;;;;;;;1.40;0.70;;;11.30;99.90;;;;;;5051375;28;20354;-60
2023/10/26 05:02:19;;;;;;;0.60;0.60;;;11.30;99.90;;;;;;5051804;28;20204;-61
2023/10/26 05:04:46;;;;;;;0.57;0.57;;;11.40;99.90;;;;;;5051410;28;20198;-61
2023/10/26 05:07:15;;;;;;;0.60;0.60;;;11.40;99.90;;;;;;5051524;28;20205;-61
2023/10/26 05:09:42;;;;;;;1.73;0.80;;;11.50;99.90;;;;;;5049277;28;20835;-60
2023/10/26 05:12:09;;;;;;;1.37;0.97;;;11.60;99.90;;;;;;5047883;28;20252;-60
2023/10/26 05:14:36;;;;;;;0.97;0.80;;;11.60;99.90;;;;;;5042214;28;20202;-60
2023/10/26 05:17:03;;;;;;;0.87;0.87;;;11.60;99.90;;;;;;5051486;28;20257;-60
2023/10/26 05:19:30;;;;;;;0.70;0.70;;;11.60;99.90;;;;;;5047630;28;20260;-61
2023/10/26 05:21:57;;;;;;;1.63;1.53;;;11.60;99.90;;;;;;5051410;28;20250;-61
2023/10/26 05:24:25;;;;;;;0.67;0.67;;;11.50;99.90;;;;;;5050828;28;20206;-60
2023/10/26 05:26:52;;;;;;;1.23;0.93;;;11.40;99.90;;;;;;5049687;28;20204;-61
2023/10/26 05:29:19;;;;;;;1.33;0.97;;;11.40;99.90;;;;;;5052532;28;20217;-61
2023/10/26 05:31:46;;;;;;;1.50;1.50;;;11.30;99.90;;;;;;5051163;28;20824;-61
2023/10/26 05:34:13;;;;;;;1.10;1.10;;;11.30;99.90;;;;;;5050876;28;20240;-60
2023/10/26 05:36:40;;;;;;;1.17;1.17;;;11.30;99.90;;;;;;5051389;28;20717;-61
2023/10/26 05:39:08;;;;;;;0.70;0.70;;;11.30;99.90;;;;;;5051173;28;20303;-61
2023/10/26 05:41:36;;;;;;;1.13;0.80;;;11.30;99.90;;;;;;5050323;28;20220;-61
2023/10/26 05:44:03;;;;;;;1.37;1.27;;;11.30;99.90;;;;;;5050688;28;20263;-61
2023/10/26 05:46:30;;;;;;;1.00;1.00;;;11.30;99.90;;;;;;5050943;28;20259;-61
2023/10/26 05:48:57;;;;;;;1.07;1.07;;;11.30;99.90;;;;;;5051065;28;20274;-61
2023/10/26 05:51:24;;;;;;;4.00;3.70;;;11.20;99.90;;;;;;5050969;28;20212;-60
2023/10/26 05:53:50;;;;;;;1.33;1.10;;;11.30;99.90;;;;;;5052305;28;20782;-61
2023/10/26 05:56:18;;;;;;;1.17;1.07;;;11.30;99.90;;;;;;5055012;28;20704;-61
2023/10/26 05:58:46;;;;;;;1.30;1.20;;;11.30;99.90;;;;;;5054224;28;20228;-60
2023/10/26 06:01:13;;;;;;;1.93;1.43;;;11.30;99.90;;;;;;5054662;28;20209;-60
2023/10/26 06:03:40;;;;;;;2.07;1.70;;;11.40;99.90;;;;;;5054396;28;20622;-60
2023/10/26 06:06:07;;;;;;;2.10;1.73;;;11.50;99.90;;;;;;5054635;28;20198;-60
2023/10/26 06:08:34;;;;;;;2.27;2.10;;;11.50;99.90;;;;;;5054415;28;20661;-61
2023/10/26 06:11:05;;;;;;;3.13;2.87;;;11.50;99.90;;;;;;5054759;28;20246;-60
2023/10/26 06:13:32;;;;;;;13.90;12.60;;;11.40;99.90;;;;;;5054162;28;20213;-61
2023/10/26 06:16:04;;;;;;;16.73;15.03;;;11.40;99.90;;;;;;5053901;28;20619;-61
2023/10/26 06:18:32;;;;;;;17.30;15.63;;;11.30;99.90;;;;;;5054089;28;20276;-61
2023/10/26 06:21:04;;;;;;;8.83;8.03;;;11.30;99.90;;;;;;5053465;28;20201;-61
2023/10/26 06:23:31;;;;;;;2.00;1.83;;;11.30;99.90;;;;;;5059841;28;20201;-60
2023/10/26 06:25:59;;;;;;;3.10;1.53;;;11.30;99.90;;;;;;5054346;28;20660;-60
2023/10/26 06:28:26;;;;;;;2.77;1.60;;;11.30;99.90;;;;;;5059850;28;20205;-61
2023/10/26 06:30:53;;;;;;;2.27;2.10;;;11.30;99.90;;;;;;5053378;28;20201;-60
2023/10/26 06:33:23;;;;;;;2.47;2.27;;;11.30;99.90;;;;;;5050321;28;20258;-61
2023/10/26 06:35:50;;;;;;;2.07;1.97;;;11.40;99.90;;;;;;5054100;28;20620;-60
2023/10/26 06:38:17;;;;;;;4.57;3.23;;;11.40;99.90;;;;;;5052955;28;20265;-60
2023/10/26 06:40:45;;;;;;;3.53;3.33;;;11.30;99.90;;;;;;5054038;28;20224;-60
2023/10/26 06:43:12;;;;;;;3.27;3.17;;;11.30;99.90;;;;;;5053701;28;20202;-60
2023/10/26 06:45:39;;;;;;;2.70;2.60;;;11.40;99.90;;;;;;5045765;28;20617;-61
2023/10/26 06:48:06;;;;;;;3.63;2.50;;;11.40;99.90;;;;;;5061977;28;20254;-60
2023/10/26 06:50:35;;;;;;;2.93;2.73;;;11.40;99.90;;;;;;5053253;28;20314;-61
2023/10/26 06:53:02;;;;;;;2.07;1.97;;;11.40;99.90;;;;;;5052289;28;20602;-60
2023/10/26 06:55:33;;;;;;;1.93;1.90;;;11.50;99.90;;;;;;5052558;28;20254;-60
2023/10/26 06:58:00;;;;;;;2.03;1.93;;;11.50;99.90;;;;;;5053705;28;20201;-61
2023/10/26 07:00:27;;;;;;;2.40;2.20;;;11.40;99.90;;;;;;5052608;28;20283;-61
2023/10/26 07:02:54;;;;;;;2.20;2.10;;;11.40;99.90;;;;;;5053688;28;20205;-60
2023/10/26 07:05:21;;;;;;;1.70;1.67;;;11.40;99.90;;;;;;5052893;28;20209;-61
2023/10/26 07:07:49;;;;;;;1.83;1.77;;;11.40;99.90;;;;;;5053614;28;20213;-61
2023/10/26 07:10:18;;;;;;;1.40;1.40;;;11.40;99.90;;;;;;5052860;28;20255;-61
2023/10/26 07:12:46;;;;;;;2.40;1.60;;;11.40;99.90;;;;;;5052329;28;20201;-61
2023/10/26 07:15:13;;;;;;;1.83;1.73;;;11.40;99.90;;;;;;5052510;28;20211;-61
2023/10/26 07:17:41;;;;;;;1.63;1.17;;;11.40;99.90;;;;;;5051218;28;20224;-60
2023/10/26 07:20:09;;;;;;;4.67;2.50;;;11.40;99.90;;;;;;5052740;28;20279;-61
2023/10/26 07:22:36;;;;;;;4.60;4.20;;;11.40;99.90;;;;;;5053120;28;20356;-61
2023/10/26 07:25:05;;;;;;;2.30;2.03;;;11.50;99.90;;;;;;5052843;28;20201;-61
2023/10/26 07:27:32;;;;;;;2.53;2.30;;;11.50;99.90;;;;;;5052864;28;20209;-61
2023/10/26 07:30:00;;;;;;;3.70;3.50;;;11.50;99.90;;;;;;5052266;28;20271;-61
2023/10/26 07:32:27;;;;;;;4.70;4.17;;;11.50;99.90;;;;;;5052759;28;20251;-61
2023/10/26 07:34:54;;;;;;;3.97;3.37;;;11.40;99.90;;;;;;5052532;28;20200;-61
2023/10/26 07:37:21;;;;;;;5.57;3.57;;;11.50;99.90;;;;;;5052137;28;20241;-61
2023/10/26 07:39:48;;;;;;;2.40;2.30;;;11.40;99.90;;;;;;5050776;28;20228;-61
2023/10/26 07:42:17;;;;;;;3.10;2.80;;;11.40;99.90;;;;;;5052981;28;20258;-60
2023/10/26 07:44:44;;;;;;;2.50;2.40;;;11.40;99.90;;;;;;5051929;28;20205;-61
2023/10/26 07:47:12;;;;;;;2.07;1.87;;;11.40;99.90;;;;;;5052586;28;20212;-61
2023/10/26 07:49:39;;;;;;;2.57;1.20;;;11.40;99.90;;;;;;5044601;28;20274;-61
2023/10/26 07:52:06;;;;;;;1.83;1.80;;;11.40;99.90;;;;;;5053851;28;20276;-61
2023/10/26 07:54:33;;;;;;;2.70;2.07;;;11.40;99.90;;;;;;5052121;28;20208;-61
2023/10/26 07:57:00;;;;;;;2.73;2.37;;;11.30;99.90;;;;;;5052440;28;20679;-61
2023/10/26 07:59:30;;;;;;;2.03;1.80;;;11.30;99.90;;;;;;5052296;28;20262;-61
2023/10/26 08:01:57;;;;;;;1.77;1.67;;;11.40;99.90;;;;;;5052617;28;20257;-61
2023/10/26 08:04:24;;;;;;;1.53;1.50;;;11.40;99.90;;;;;;5051090;28;20208;-60
2023/10/26 08:06:51;;;;;;;1.53;1.30;;;11.40;99.90;;;;;;5052397;28;20254;-61
2023/10/26 08:09:18;;;;;;;2.30;1.23;;;11.50;99.90;;;;;;5052069;28;20286;-61
2023/10/26 08:11:45;;;;;;;1.20;0.97;;;11.50;99.90;;;;;;5052614;28;20254;-61
2023/10/26 08:14:12;;;;;;;1.20;1.10;;;11.60;99.90;;;;;;5052161;28;20202;-61
2023/10/26 08:16:40;;;;;;;1.00;1.00;;;11.50;99.90;;;;;;5051748;28;20212;-61
2023/10/26 08:19:08;;;;;;;1.30;1.20;;;11.60;99.90;;;;;;5051658;28;20218;-61
2023/10/26 08:21:35;;;;;;;1.37;0.73;;;11.60;99.90;;;;;;5050877;28;20204;-61
2023/10/26 08:24:02;;;;;;;0.90;0.90;;;11.70;99.90;;;;;;5052132;28;20259;-61
2023/10/26 08:26:29;;;;;;;0.73;0.73;;;11.70;99.90;;;;;;5052314;28;20204;-61
2023/10/26 08:28:56;;;;;;;1.87;1.70;;;11.70;99.90;;;;;;5052171;28;20221;-61
2023/10/26 08:31:23;;;;;;;2.60;1.77;;;11.70;99.90;;;;;;5052068;28;20650;-61
2023/10/26 08:33:51;;;;;;;2.83;1.80;;;11.80;99.90;;;;;;5051558;28;20196;-61
2023/10/26 08:36:18;;;;;;;4.43;4.03;;;11.90;99.90;;;;;;5052607;28;20209;-61
2023/10/26 08:38:45;;;;;;;5.63;5.30;;;11.90;99.90;;;;;;5051309;28;20201;-60
2023/10/26 08:41:13;;;;;;;2.73;1.80;;;12.00;99.90;;;;;;5052076;28;20215;-60
2023/10/26 08:43:42;;;;;;;0.90;0.90;;;12.00;99.90;;;;;;5047652;28;20574;-61
2023/10/26 08:46:11;;;;;;;2.53;0.70;;;12.10;99.90;;;;;;5048740;28;20286;-61
2023/10/26 08:48:40;;;;;;;1.63;1.10;;;12.20;99.90;;;;;;5051101;28;20205;-61
2023/10/26 08:51:08;;;;;;;4.40;0.60;;;12.40;99.90;;;;;;5051507;28;20618;-61
2023/10/26 08:53:35;;;;;;;0.93;0.70;;;12.50;99.90;;;;;;5050021;28;20253;-61
2023/10/26 08:56:15;;;;;;;1.47;1.00;;;12.50;99.90;;;;;;5051074;28;20193;-61
2023/10/26 08:58:42;;;;;;;0.57;0.57;;;12.70;99.90;;;;;;5044890;28;20229;-61
2023/10/26 09:01:12;;;;;;;1.20;1.10;;;12.80;99.90;;;;;;5051259;28;20275;-61
2023/10/26 09:03:39;;;;;;;3.10;1.37;;;12.90;99.90;;;;;;5049707;28;20197;-60
2023/10/26 09:06:11;;;;;;;1.87;0.70;;;13.00;99.90;;;;;;5049670;28;20211;-61
2023/10/26 09:08:38;;;;;;;0.97;0.90;;;13.00;99.90;;;;;;5050015;28;20740;-61
2023/10/26 09:11:22;;;;;;;0.80;0.80;;;13.10;99.90;;;;;;5048991;28;20802;-62
2023/10/26 09:13:50;;;;;;;1.77;1.50;;;13.20;99.90;;;;;;5041970;28;20200;-61
2023/10/26 09:16:17;;;;;;;2.63;1.80;;;13.20;99.90;;;;;;5043948;28;20204;-60
2023/10/26 09:18:51;;;;;;;0.70;0.70;;;13.40;99.90;;;;;;5049992;28;20275;-61
2023/10/26 09:21:19;;;;;;;1.50;0.67;;;13.50;99.90;;;;;;5049489;28;20284;-61
2023/10/26 09:23:46;;;;;;;1.87;0.40;;;13.60;99.90;;;;;;5044122;28;20720;-61
2023/10/26 09:26:13;;;;;;;1.60;0.67;;;13.70;99.90;;;;;;5048096;28;20214;-61
2023/10/26 09:28:51;;;;;;;2.93;0.77;;;13.70;99.90;;;;;;5042205;28;20202;-60
2023/10/26 09:31:18;;;;;;;1.23;0.77;;;13.80;99.90;;;;;;5051564;28;20202;-60
2023/10/26 09:33:45;;;;;;;1.27;1.27;;;13.80;99.90;;;;;;5050418;28;20196;-60
2023/10/26 09:36:13;;;;;;;1.50;1.40;;;13.80;99.90;;;;;;5050624;28;20209;-61
2023/10/26 09:38:42;;;;;;;1.07;1.00;;;13.90;99.90;;;;;;5053145;28;20319;-61
2023/10/26 09:41:12;;;;;;;2.50;2.20;;;13.90;99.90;;;;;;5054586;28;20271;-61
2023/10/26 09:43:40;;;;;;;1.67;1.17;;;14.00;99.90;;;;;;5053971;28;20592;-61
2023/10/26 09:46:12;;;;;;;1.00;0.90;;;14.10;99.90;;;;;;5053763;28;20616;-61
2023/10/26 09:48:40;;;;;;;1.53;1.43;;;14.40;99.90;;;;;;5054379;28;20208;-61
2023/10/26 09:51:07;;;;;;;1.97;1.87;;;14.70;99.90;;;;;;5053207;28;20248;-61
2023/10/26 09:53:37;;;;;;;1.60;0.90;;;15.00;99.90;;;;;;5054055;28;20201;-61
2023/10/26 09:56:10;;;;;;;0.60;0.50;;;15.40;99.90;;;;;;5053737;28;20251;-61
2023/10/26 09:58:40;;;;;;;0.70;0.70;;;15.50;99.90;;;;;;5045448;28;20201;-61
2023/10/26 10:01:33;;;;;;;0.83;0.83;;;15.70;99.90;;;;;;5049820;28;20213;-62
2023/10/26 10:04:00;;;;;;;0.87;0.87;;;15.90;99.90;;;;;;5048563;28;20205;-62
2023/10/26 10:06:51;;;;;;;0.87;0.87;;;16.10;99.90;;;;;;5052850;28;20201;-62
2023/10/26 10:09:20;;;;;;;0.90;0.90;;;16.30;99.90;;;;;;5053705;28;20236;-61
2023/10/26 10:12:27;;;;;;;1.33;0.60;;;16.80;99.90;;;;;;5054222;28;20205;-61
2023/10/26 10:15:00;;;;;;;0.70;0.70;;;17.50;99.90;;;;;;5053861;28;20198;-61
2023/10/26 10:18:01;;;;;;;0.47;0.47;;;18.30;99.90;;;;;;5054138;28;20208;-61
2023/10/26 10:20:30;;;;;;;0.73;0.50;;;18.30;99.90;;;;;;4972060;28;20283;-61
2023/10/26 10:22:59;;;;;;;0.50;0.50;;;18.40;99.90;;;;;;4973007;28;20228;-61
2023/10/26 10:26:02;;;;;;;0.50;0.50;;;18.60;99.90;;;;;;5011657;28;20228;-61
2023/10/26 10:28:51;;;;;;;0.67;0.67;;;18.60;99.90;;;;;;5054002;28;20284;-61
2023/10/26 10:31:37;;;;;;;0.70;0.70;;;18.30;99.90;;;;;;5052692;28;20292;-61
2023/10/26 10:34:05;;;;;;;1.57;0.70;;;17.80;99.90;;;;;;5053946;28;20252;-61
2023/10/26 10:37:06;;;;;;;1.73;0.73;;;17.70;99.90;;;;;;5054125;28;20621;-61
2023/10/26 10:39:33;;;;;;;0.60;0.60;;;17.50;99.90;;;;;;5053328;28;20253;-61
2023/10/26 10:42:00;;;;;;;0.90;0.90;;;17.50;99.90;;;;;;5054242;28;20198;-61
2023/10/26 10:44:29;;;;;;;0.60;0.60;;;17.60;99.90;;;;;;5052312;28;20198;-61
2023/10/26 10:46:56;;;;;;;0.60;0.60;;;17.80;99.90;;;;;;5053949;28;20197;-61
2023/10/26 10:49:25;;;;;;;0.45;0.45;;;17.80;99.90;;;;;;5052338;28;20432;-67
2023/10/26 10:51:52;;;;;;;1.70;0.50;;;17.70;99.90;;;;;;5053804;28;20647;-66
2023/10/26 10:54:23;;;;;;;0.87;0.60;;;18.00;99.90;;;;;;5052490;28;20313;-67
2023/10/26 10:56:50;;;;;;;0.50;0.50;;;18.20;99.90;;;;;;5052781;28;20202;-69
2023/10/26 10:59:18;;;;;;;0.53;0.50;;;18.60;99.90;;;;;;5053204;28;20226;-64
2023/10/26 11:01:47;;;;;;;0.50;0.50;;;18.50;99.90;;;;;;5052259;28;20307;-64
2023/10/26 11:04:14;;;;;;;1.73;0.60;;;18.60;99.90;;;;;;5052979;28;20198;-64
2023/10/26 11:06:49;;;;;;;1.57;0.60;;;18.40;99.90;;;;;;5053457;28;20760;-64
2023/10/26 11:09:23;;;;;;;0.70;0.70;;;18.30;99.90;;;;;;5053218;28;20241;-66
2023/10/26 11:11:50;;;;;;;3.33;0.50;;;18.20;99.90;;;;;;5046208;28;20193;-68
2023/10/26 11:14:19;;;;;;;0.60;0.50;;;17.90;99.90;;;;;;5053238;28;20205;-67
2023/10/26 11:16:49;;;;;;;0.50;0.50;;;17.70;99.90;;;;;;5052593;28;20232;-65
2023/10/26 11:19:16;;;;;;;0.67;0.67;;;17.40;99.90;;;;;;5052835;28;20225;-65
2023/10/26 11:21:43;;;;;;;0.93;0.73;;;17.00;99.90;;;;;;5033282;28;20308;-67
2023/10/26 11:24:10;;;;;;;0.73;0.73;;;16.70;99.90;;;;;;5040143;28;20283;-66
2023/10/26 11:26:37;;;;;;;0.53;0.53;;;16.60;99.90;;;;;;5052662;28;20596;-66
2023/10/26 11:29:04;;;;;;;0.70;0.70;;;16.40;99.90;;;;;;5052853;28;20226;-66
2023/10/26 11:31:42;;;;;;;1.53;1.00;;;16.20;99.90;;;;;;5052601;28;20198;-66
2023/10/26 11:34:11;;;;;;;1.13;1.13;;;16.20;99.90;;;;;;5050994;28;20236;-65
2023/10/26 11:36:39;;;;;;;0.50;0.50;;;16.20;99.90;;;;;;5052331;28;20209;-65
2023/10/26 11:39:06;;;;;;;1.27;0.70;;;16.40;99.90;;;;;;5043126;28;20225;-66
2023/10/26 11:41:36;;;;;;;2.43;1.77;;;16.50;99.90;;;;;;4969905;28;20727;-67
2023/10/26 11:44:03;;;;;;;1.80;1.80;;;16.50;99.90;;;;;;4974060;28;20201;-66
2023/10/26 11:46:35;;;;;;;0.87;0.70;;;16.70;99.90;;;;;;4974069;28;20212;-66
2023/10/26 11:49:03;;;;;;;2.47;0.60;;;16.90;99.90;;;;;;4973874;28;20221;-66
2023/10/26 11:51:33;;;;;;;0.63;0.60;;;17.10;99.90;;;;;;4975240;28;20292;-65
2023/10/26 11:54:11;;;;;;;0.63;0.63;;;17.20;99.90;;;;;;4974471;28;20201;-66
2023/10/26 11:56:38;;;;;;;3.13;0.50;;;17.30;99.90;;;;;;4973724;28;20291;-65
2023/10/26 11:59:05;;;;;;;4.00;0.67;;;17.30;99.90;;;;;;4973728;28;20220;-67
2023/10/26 12:01:32;;;;;;;0.30;0.30;;;17.40;99.90;;;;;;4973498;28;20893;-68
2023/10/26 12:03:59;;;;;;;1.67;0.50;;;17.30;99.90;;;;;;4973373;28;20197;-67
2023/10/26 12:06:30;;;;;;;0.50;0.50;;;17.30;99.90;;;;;;4973629;28;20205;-66
2023/10/26 12:08:58;;;;;;;0.53;0.53;;;17.30;99.90;;;;;;4976462;28;20243;-67
2023/10/26 12:11:25;;;;;;;0.77;0.77;;;17.10;99.90;;;;;;4973623;28;20196;-65
2023/10/26 12:13:52;;;;;;;5.67;0.73;;;17.00;99.90;;;;;;4973297;28;20204;-66
2023/10/26 12:16:19;;;;;;;5.73;4.83;;;16.70;99.90;;;;;;4973434;28;20204;-59
2023/10/26 12:18:46;;;;;;;1.47;1.20;;;16.60;99.90;;;;;;4973498;28;20204;-63
2023/10/26 12:21:13;;;;;;;1.37;0.80;;;16.50;99.90;;;;;;4973425;28;20283;-64
2023/10/26 12:23:40;;;;;;;2.93;0.70;;;16.60;99.90;;;;;;4971145;28;20251;-65
2023/10/26 12:26:08;;;;;;;2.07;0.57;;;16.60;99.90;;;;;;4979295;28;20258;-60
2023/10/26 12:28:35;;;;;;;5.30;3.07;;;16.60;99.90;;;;;;4974111;28;20271;-63
2023/10/26 12:31:04;;;;;;;4.67;2.37;;;16.70;99.90;;;;;;4973349;28;20583;-64
2023/10/26 12:33:31;;;;;;;3.30;2.23;;;16.60;99.90;;;;;;4972541;28;20236;-64
2023/10/26 12:35:58;;;;;;;5.50;2.40;;;16.60;99.90;;;;;;4973119;28;20200;-64
2023/10/26 12:38:26;;;;;;;5.23;2.20;;;16.60;99.90;;;;;;4973366;28;20212;-65
2023/10/26 12:40:53;;;;;;;3.43;1.07;;;16.50;99.90;;;;;;4971878;28;20643;-64
2023/10/26 12:43:21;;;;;;;3.50;1.43;;;16.40;99.90;;;;;;4972703;28;20208;-63
2023/10/26 12:45:48;;;;;;;3.67;0.83;;;16.30;99.90;;;;;;4972975;28;20201;-64
2023/10/26 12:48:15;;;;;;;2.60;0.97;;;16.30;99.90;;;;;;4972778;28;20207;-64
2023/10/26 12:50:42;;;;;;;2.00;0.57;;;16.40;99.90;;;;;;4972789;28;20220;-65